createdAt,value
2018-05-27T00:01:18.753Z,101750.81
2018-05-27T00:03:46.264Z,101747.94
2018-05-27T00:06:13.795Z,101749.45
2018-05-27T00:08:41.331Z,101746.87
2018-05-27T00:11:08.918Z,101741.73
2018-05-27T00:13:36.437Z,101739.38
2018-05-27T00:16:04.225Z,101744.11
2018-05-27T00:18:31.733Z,101745.28
2018-05-27T00:20:59.259Z,101741.08
2018-05-27T00:23:26.774Z,101743.75
2018-05-27T00:25:54.593Z,101742.61
2018-05-27T00:28:22.115Z,101738.95
2018-05-27T00:30:49.637Z,101739.27
2018-05-27T00:33:17.149Z,101737.88
2018-05-27T00:35:44.680Z,101735.63
2018-05-27T00:38:12.207Z,101739.27
2018-05-27T00:40:40.034Z,101738.19
2018-05-27T00:43:07.535Z,101741.84
2018-05-27T00:45:35.358Z,101743.25
2018-05-27T00:48:02.865Z,101743.16
2018-05-27T00:50:30.401Z,101741.73
2018-05-27T00:52:58.345Z,101741.84
2018-05-27T00:55:25.845Z,101743.94
2018-05-27T00:57:53.377Z,101737.43
2018-05-27T01:00:20.905Z,101751.34
2018-05-27T01:02:48.429Z,101745.55
2018-05-27T01:05:15.956Z,101751.15
2018-05-27T01:07:43.481Z,101740.66
2018-05-27T01:10:10.986Z,101743.47
2018-05-27T01:12:38.523Z,101745.46
2018-05-27T01:15:06.085Z,101735.91
2018-05-27T01:17:33.608Z,101733.09
2018-05-27T01:20:01.141Z,101730.33
2018-05-27T01:22:28.696Z,101734.39
2018-05-27T01:24:56.270Z,101732.94
2018-05-27T01:27:23.782Z,101730.02
2018-05-27T01:29:51.317Z,101733.55
2018-05-27T01:32:18.869Z,101736.16
2018-05-27T01:34:46.387Z,101736.44
2018-05-27T01:37:13.927Z,101738.20
2018-05-27T01:39:41.807Z,101729.97
2018-05-27T01:42:09.370Z,101726.26
2018-05-27T01:44:36.884Z,101731.10
2018-05-27T01:47:04.412Z,101727.28
2018-05-27T01:49:32.241Z,101718.64
2018-05-27T01:52:00.006Z,101716.90
2018-05-27T01:54:27.526Z,101720.16
2018-05-27T01:56:55.055Z,101713.63
2018-05-27T01:59:22.571Z,101719.78
2018-05-27T02:01:50.112Z,101721.86
2018-05-27T02:04:17.638Z,101719.36
2018-05-27T02:06:45.177Z,101719.39
2018-05-27T02:09:12.691Z,101714.57
2018-05-27T02:11:40.209Z,101719.88
2018-05-27T02:14:07.720Z,101723.45
2018-05-27T02:16:35.319Z,101713.53
2018-05-27T02:19:02.841Z,101716.03
2018-05-27T02:21:30.384Z,101714.88
2018-05-27T02:23:57.887Z,101709.88
2018-05-27T02:26:25.756Z,101710.30
2018-05-27T02:28:53.333Z,101707.41
2018-05-27T02:31:20.895Z,101712.89
2018-05-27T02:33:48.439Z,101707.47
2018-05-27T02:36:16.204Z,101700.78
2018-05-27T02:38:43.739Z,101700.57
2018-05-27T02:41:11.264Z,101699.04
2018-05-27T02:43:38.798Z,101700.50
2018-05-27T02:46:06.312Z,101701.13
2018-05-27T02:48:33.845Z,101704.66
2018-05-27T02:51:01.383Z,101706.02
2018-05-27T02:53:28.920Z,101701.16
2018-05-27T02:55:56.440Z,101697.30
2018-05-27T02:58:23.983Z,101692.00
2018-05-27T03:00:51.554Z,101696.89
2018-05-27T03:03:19.100Z,101700.53
2018-05-27T03:05:46.615Z,101694.20
2018-05-27T03:08:14.399Z,101701.17
2018-05-27T03:10:41.960Z,101701.17
2018-05-27T03:13:09.826Z,101705.03
2018-05-27T03:15:37.591Z,101705.55
2018-05-27T03:18:05.127Z,101700.78
2018-05-27T03:20:32.634Z,101703.98
2018-05-27T03:23:00.163Z,101693.91
2018-05-27T03:25:27.910Z,101698.59
2018-05-27T03:27:55.455Z,101695.77
2018-05-27T03:30:22.981Z,101696.84
2018-05-27T03:32:50.545Z,101697.38
2018-05-27T03:35:18.124Z,101694.45
2018-05-27T03:37:45.655Z,101693.00
2018-05-27T03:40:13.179Z,101694.56
2018-05-27T03:42:40.731Z,101696.31
2018-05-27T03:45:08.232Z,101698.42
2018-05-27T03:47:35.771Z,101692.48
2018-05-27T03:50:03.272Z,101693.73
2018-05-27T03:52:30.805Z,101701.55
2018-05-27T03:54:58.322Z,101694.66
2018-05-27T03:57:25.852Z,101695.20
2018-05-27T03:59:53.359Z,101699.13
2018-05-27T04:02:21.147Z,101700.48
2018-05-27T04:05:00.389Z,101696.45
2018-05-27T04:07:40.572Z,101702.24
2018-05-27T04:10:08.111Z,101695.40
2018-05-27T04:12:35.629Z,101699.85
2018-05-27T04:15:03.149Z,101692.78
2018-05-27T04:17:30.682Z,101692.89
2018-05-27T04:19:58.243Z,101692.77
2018-05-27T04:22:25.749Z,101688.92
2018-05-27T04:24:53.285Z,101686.84
2018-05-27T04:27:20.795Z,101687.78
2018-05-27T04:29:48.584Z,101686.42
2018-05-27T04:32:16.120Z,101689.52
2018-05-27T04:34:43.663Z,101689.96
2018-05-27T04:37:11.190Z,101688.27
2018-05-27T04:39:38.733Z,101694.23
2018-05-27T04:42:06.256Z,101692.03
2018-05-27T04:44:33.804Z,101695.70
2018-05-27T04:47:01.330Z,101696.62
2018-05-27T04:49:28.970Z,101704.66
2018-05-27T04:51:56.483Z,101703.70
2018-05-27T04:54:24.021Z,101706.84
2018-05-27T04:56:51.535Z,101709.44
2018-05-27T04:59:19.070Z,101707.97
2018-05-27T05:01:46.616Z,101707.97
2018-05-27T05:04:14.173Z,101713.89
2018-05-27T05:06:41.735Z,101711.37
2018-05-27T05:09:09.254Z,101712.84
2018-05-27T05:11:36.767Z,101711.35
2018-05-27T05:14:04.580Z,101713.97
2018-05-27T05:16:32.081Z,101719.77
2018-05-27T05:18:59.612Z,101718.01
2018-05-27T05:21:27.455Z,101710.48
2018-05-27T05:23:54.993Z,101704.06
2018-05-27T05:26:22.779Z,101708.44
2018-05-27T05:28:50.357Z,101706.77
2018-05-27T05:31:17.884Z,101712.47
2018-05-27T05:33:45.412Z,101705.36
2018-05-27T05:36:12.939Z,101707.83
2018-05-27T05:38:40.481Z,101720.41
2018-05-27T05:41:08.411Z,101707.25
2018-05-27T05:43:35.962Z,101712.66
2018-05-27T05:46:03.502Z,101710.86
2018-05-27T05:48:31.035Z,101714.16
2018-05-27T05:50:58.569Z,101712.17
2018-05-27T05:53:26.109Z,101709.56
2018-05-27T05:55:53.627Z,101712.66
2018-05-27T05:58:21.388Z,101714.84
2018-05-27T06:00:48.917Z,101722.27
2018-05-27T06:03:16.424Z,101717.84
2018-05-27T06:05:43.946Z,101721.58
2018-05-27T06:08:11.662Z,101719.56
2018-05-27T06:10:39.187Z,101721.96
2018-05-27T06:13:06.703Z,101720.02
2018-05-27T06:15:34.623Z,101720.12
2018-05-27T06:18:02.142Z,101723.55
2018-05-27T06:20:29.694Z,101725.75
2018-05-27T06:22:57.216Z,101728.09
2018-05-27T06:25:24.733Z,101722.24
2018-05-27T06:27:52.253Z,101722.97
2018-05-27T06:30:19.802Z,101726.81
2018-05-27T06:32:47.398Z,101723.09
2018-05-27T06:35:15.418Z,101725.70
2018-05-27T06:37:42.917Z,101726.36
2018-05-27T06:40:10.448Z,101729.72
2018-05-27T06:42:38.285Z,101734.04
2018-05-27T06:45:05.836Z,101729.48
2018-05-27T06:47:33.639Z,101738.41
2018-05-27T06:50:01.156Z,101733.11
2018-05-27T06:52:28.709Z,101735.54
2018-05-27T06:54:56.500Z,101737.06
2018-05-27T06:57:24.025Z,101734.23
2018-05-27T06:59:51.825Z,101740.69
2018-05-27T07:02:19.335Z,101744.98
2018-05-27T07:04:46.941Z,101737.10
2018-05-27T07:07:14.410Z,101748.23
2018-05-27T07:09:41.945Z,101732.63
2018-05-27T07:12:10.165Z,101734.84
2018-05-27T07:14:37.787Z,101729.92
2018-05-27T07:17:05.364Z,101725.95
2018-05-27T07:19:32.868Z,101725.14
2018-05-27T07:22:00.431Z,101724.19
2018-05-27T07:24:27.988Z,101720.46
2018-05-27T07:26:55.508Z,101726.73
2018-05-27T07:29:23.047Z,101730.79
2018-05-27T07:31:50.572Z,101727.08
2018-05-27T07:34:18.162Z,101730.70
2018-05-27T07:36:45.684Z,101734.68
2018-05-27T07:39:13.526Z,101729.05
2018-05-27T07:41:41.233Z,101736.07
2018-05-27T07:44:08.773Z,101735.81
2018-05-27T07:46:36.317Z,101736.66
2018-05-27T07:49:03.938Z,101733.80
2018-05-27T07:51:31.576Z,101731.98
2018-05-27T07:53:59.115Z,101726.27
2018-05-27T07:56:26.626Z,101721.48
2018-05-27T07:58:54.136Z,101724.27
2018-05-27T08:01:21.666Z,101721.89
2018-05-27T08:03:49.182Z,101719.53
2018-05-27T08:06:16.757Z,101722.40
2018-05-27T08:08:44.285Z,101727.30
2018-05-27T08:11:12.114Z,101718.39
2018-05-27T08:13:39.875Z,101719.96
2018-05-27T08:16:07.393Z,101722.86
2018-05-27T08:18:34.915Z,101725.44
2018-05-27T08:21:02.460Z,101723.87
2018-05-27T08:23:29.966Z,101724.33
2018-05-27T08:25:57.546Z,101725.55
2018-05-27T08:28:25.068Z,101728.27
2018-05-27T08:30:52.628Z,101733.31
2018-05-27T08:33:20.148Z,101731.67
2018-05-27T08:35:47.665Z,101735.78
2018-05-27T08:38:15.195Z,101734.30
2018-05-27T08:40:43.123Z,101729.45
2018-05-27T08:43:10.646Z,101730.63
2018-05-27T08:45:38.213Z,101726.64
2018-05-27T08:48:05.856Z,101726.06
2018-05-27T08:50:33.501Z,101724.09
2018-05-27T08:53:01.123Z,101728.20
2018-05-27T08:55:28.733Z,101730.58
2018-05-27T08:57:56.619Z,101725.64
2018-05-27T09:00:24.136Z,101728.98
2018-05-27T09:02:51.741Z,101720.77
2018-05-27T09:05:19.577Z,101725.22
2018-05-27T09:07:47.107Z,101727.25
2018-05-27T09:10:15.117Z,101723.22
2018-05-27T09:15:20.783Z,101721.95
2018-05-27T09:17:48.744Z,101721.13
2018-05-27T09:20:16.311Z,101721.40
2018-05-27T09:22:43.835Z,101716.69
2018-05-27T09:25:11.451Z,101719.20
2018-05-27T09:27:38.935Z,101721.05
2018-05-27T09:30:06.610Z,101714.87
2018-05-27T09:32:34.369Z,101707.19
2018-05-27T09:35:01.889Z,101713.69
2018-05-27T09:37:29.426Z,101717.33
2018-05-27T09:39:57.119Z,101706.67
2018-05-27T09:42:24.860Z,101707.20
2018-05-27T09:44:52.403Z,101706.64
2018-05-27T09:47:20.533Z,101713.05
2018-05-27T09:49:48.070Z,101711.56
2018-05-27T09:52:15.633Z,101708.89
2018-05-27T09:54:43.245Z,101709.09
2018-05-27T09:57:10.832Z,101707.74
2018-05-27T09:59:38.617Z,101703.30
2018-05-27T10:02:06.156Z,101704.89
2018-05-27T10:04:33.698Z,101701.21
2018-05-27T10:07:01.225Z,101701.52
2018-05-27T10:09:28.756Z,101698.47
2018-05-27T10:11:56.308Z,101693.81
2018-05-27T10:14:23.838Z,101693.53
2018-05-27T10:16:51.374Z,101682.73
2018-05-27T10:19:18.901Z,101681.69
2018-05-27T10:21:46.427Z,101684.44
2018-05-27T10:24:15.158Z,101673.16
2018-05-27T10:26:42.847Z,101678.52
2018-05-27T10:29:10.400Z,101678.92
2018-05-27T10:31:38.005Z,101677.26
2018-05-27T10:34:05.557Z,101669.03
2018-05-27T10:36:33.119Z,101668.28
2018-05-27T10:39:00.726Z,101670.41
2018-05-27T10:41:28.574Z,101671.41
2018-05-27T10:43:56.340Z,101677.02
2018-05-27T10:46:23.942Z,101671.45
2018-05-27T10:48:51.457Z,101673.98
2018-05-27T10:51:19.044Z,101669.59
2018-05-27T10:53:47.417Z,101665.17
2018-05-27T10:56:14.953Z,101663.03
2018-05-27T10:58:42.526Z,101660.17
2018-05-27T11:01:10.081Z,101667.56
2018-05-27T11:03:37.662Z,101651.82
2018-05-27T11:06:06.139Z,101653.84
2018-05-27T11:08:33.734Z,101651.33
2018-05-27T11:11:01.250Z,101651.53
2018-05-27T11:13:28.795Z,101647.48
2018-05-27T11:15:56.329Z,101643.02
2018-05-27T11:18:24.012Z,101640.17
2018-05-27T11:20:51.524Z,101634.81
2018-05-27T11:23:19.056Z,101631.33
2018-05-27T11:25:46.602Z,101627.64
2018-05-27T11:28:14.158Z,101621.70
2018-05-27T11:30:41.958Z,101628.00
2018-05-27T11:33:09.496Z,101623.03
2018-05-27T11:35:37.039Z,101618.81
2018-05-27T11:38:04.578Z,101608.97
2018-05-27T11:40:32.088Z,101610.80
2018-05-27T11:42:59.624Z,101608.67
2018-05-27T11:45:27.155Z,101603.37
2018-05-27T11:47:54.675Z,101593.29
2018-05-27T11:50:22.202Z,101592.34
2018-05-27T11:52:49.732Z,101588.72
2018-05-27T11:55:17.541Z,101579.88
2018-05-27T11:57:45.071Z,101582.37
2018-05-27T12:00:12.579Z,101583.20
2018-05-27T12:02:40.099Z,101580.71
2018-05-27T12:05:07.620Z,101579.59
2018-05-27T12:07:36.031Z,101579.27
2018-05-27T12:10:04.038Z,101571.63
2018-05-27T12:12:31.811Z,101573.23
2018-05-27T12:14:59.321Z,101572.09
2018-05-27T12:17:26.905Z,101567.34
2018-05-27T12:19:54.442Z,101562.75
2018-05-27T12:22:21.954Z,101558.63
2018-05-27T12:24:49.459Z,101553.80
2018-05-27T12:27:17.066Z,101547.84
2018-05-27T12:29:44.871Z,101545.35
2018-05-27T12:32:12.423Z,101550.05
2018-05-27T12:34:39.940Z,101553.45
2018-05-27T12:37:07.476Z,101558.08
2018-05-27T12:39:35.760Z,101563.91
2018-05-27T12:42:03.308Z,101563.09
2018-05-27T12:44:30.812Z,101564.02
2018-05-27T12:46:58.329Z,101569.43
2018-05-27T12:49:25.858Z,101573.33
2018-05-27T12:51:53.388Z,101576.22
2018-05-27T12:54:20.905Z,101577.76
2018-05-27T12:56:48.428Z,101573.78
2018-05-27T12:59:15.954Z,101575.16
2018-05-27T13:01:44.341Z,101571.88
2018-05-27T13:04:11.868Z,101573.11
2018-05-27T13:06:39.433Z,101570.11
2018-05-27T13:09:07.248Z,101572.67
2018-05-27T13:11:34.755Z,101566.64
2018-05-27T13:14:02.303Z,101564.15
2018-05-27T13:16:30.159Z,101562.66
2018-05-27T13:18:57.808Z,101565.98
2018-05-27T13:21:25.332Z,101560.25
2018-05-27T13:23:53.120Z,101565.56
2018-05-27T13:26:20.873Z,101560.66
2018-05-27T13:28:48.395Z,101543.33
2018-05-27T13:31:15.915Z,101537.86
2018-05-27T13:33:43.434Z,101538.16
2018-05-27T13:36:11.371Z,101530.38
2018-05-27T13:38:38.903Z,101515.08
2018-05-27T13:41:06.421Z,101519.61
2018-05-27T13:43:33.942Z,101525.09
2018-05-27T13:46:01.786Z,101520.83
2018-05-27T13:48:29.371Z,101516.39
2018-05-27T13:50:56.895Z,101510.34
2018-05-27T13:53:24.774Z,101506.06
2018-05-27T13:55:52.330Z,101506.49
2018-05-27T13:58:19.898Z,101516.33
2018-05-27T14:00:47.459Z,101524.69
2018-05-27T14:03:15.007Z,101534.78
2018-05-27T14:05:42.599Z,101537.91
2018-05-27T14:08:10.150Z,101537.36
2018-05-27T14:10:37.680Z,101533.22
2018-05-27T14:13:05.200Z,101531.42
2018-05-27T14:15:32.770Z,101537.14
2018-05-27T14:18:00.300Z,101537.43
2018-05-27T14:20:28.130Z,101532.55
2018-05-27T14:22:56.526Z,101534.02
2018-05-27T14:25:24.034Z,101532.17
2018-05-27T14:27:51.555Z,101537.70
2018-05-27T14:30:19.082Z,101539.51
2018-05-27T14:32:46.591Z,101541.56
2018-05-27T14:35:14.123Z,101544.70
2018-05-27T14:37:41.988Z,101546.08
2018-05-27T14:40:09.670Z,101545.41
2018-05-27T14:42:37.188Z,101536.61
2018-05-27T14:45:04.796Z,101531.87
2018-05-27T14:47:32.360Z,101535.16
2018-05-27T14:49:59.909Z,101531.26
2018-05-27T14:52:27.414Z,101530.00
2018-05-27T14:54:54.938Z,101531.34
2018-05-27T14:57:22.441Z,101534.77
2018-05-27T14:59:49.971Z,101533.75
2018-05-27T15:02:17.488Z,101533.77
2018-05-27T15:04:45.025Z,101531.16
2018-05-27T15:07:12.578Z,101526.09
2018-05-27T15:09:40.183Z,101525.05
2018-05-27T15:12:07.705Z,101520.97
2018-05-27T15:14:35.937Z,101522.73
2018-05-27T15:17:03.503Z,101517.95
2018-05-27T15:19:31.424Z,101516.84
2018-05-27T15:21:58.974Z,101517.54
2018-05-27T15:24:26.639Z,101514.80
2018-05-27T15:26:54.503Z,101520.41
2018-05-27T15:29:22.132Z,101516.45
2018-05-27T15:31:49.906Z,101513.50
2018-05-27T15:34:18.131Z,101519.28
2018-05-27T15:36:46.529Z,101518.54
2018-05-27T15:39:14.734Z,101513.25
2018-05-27T15:41:42.347Z,101511.25
2018-05-27T15:44:09.883Z,101510.34
2018-05-27T15:46:37.669Z,101511.84
2018-05-27T15:49:05.194Z,101500.74
2018-05-27T15:51:32.701Z,101495.41
2018-05-27T15:54:00.292Z,101492.99
2018-05-27T15:56:27.797Z,101487.91
2018-05-27T15:58:55.924Z,101480.84
2018-05-27T16:01:23.433Z,101479.52
2018-05-27T16:03:50.944Z,101475.22
2018-05-27T16:06:18.440Z,101476.63
2018-05-27T16:08:46.016Z,101473.19
2018-05-27T16:11:13.551Z,101478.23
2018-05-27T16:13:41.103Z,101484.12
2018-05-27T16:16:09.031Z,101485.30
2018-05-27T16:18:36.566Z,101483.27
2018-05-27T16:21:04.089Z,101484.50
2018-05-27T16:23:31.647Z,101485.05
2018-05-27T16:25:59.466Z,101483.27
2018-05-27T16:28:27.013Z,101484.66
2018-05-27T16:30:55.439Z,101483.23
2018-05-27T16:33:22.982Z,101481.64
2018-05-27T16:35:50.506Z,101480.16
2018-05-27T16:38:18.036Z,101479.86
2018-05-27T16:40:45.682Z,101481.45
2018-05-27T16:43:13.222Z,101473.25
2018-05-27T16:45:40.788Z,101481.23
2018-05-27T16:48:08.428Z,101485.23
2018-05-27T16:50:35.974Z,101488.67
2018-05-27T16:53:03.716Z,101491.59
2018-05-27T16:55:31.256Z,101490.25
2018-05-27T16:57:58.752Z,101496.47
2018-05-27T17:00:26.283Z,101494.44
2018-05-27T17:02:53.809Z,101501.36
2018-05-27T17:05:21.362Z,101502.44
2018-05-27T17:07:48.877Z,101498.64
2018-05-27T17:10:16.468Z,101493.80
2018-05-27T17:12:44.245Z,101498.72
2018-05-27T17:15:11.836Z,101495.33
2018-05-27T17:17:39.346Z,101501.37
2018-05-27T17:20:06.907Z,101500.55
2018-05-27T17:22:35.152Z,101498.39
2018-05-27T17:25:02.968Z,101497.77
2018-05-27T17:27:30.470Z,101508.94
2018-05-27T17:29:58.001Z,101508.64
2018-05-27T17:32:25.565Z,101516.13
2018-05-27T17:34:53.324Z,101516.87
2018-05-27T17:37:21.081Z,101518.89
2018-05-27T17:39:48.592Z,101522.91
2018-05-27T17:42:16.119Z,101524.14
2018-05-27T17:44:43.641Z,101529.42
2018-05-27T17:47:11.441Z,101534.11
2018-05-27T17:49:38.999Z,101540.77
2018-05-27T17:52:07.257Z,101543.21
2018-05-27T17:54:34.836Z,101541.19
2018-05-27T17:57:02.382Z,101545.57
2018-05-27T17:59:29.890Z,101535.26
2018-05-27T18:01:57.523Z,101531.95
2018-05-27T18:04:25.032Z,101540.42
2018-05-27T18:06:52.596Z,101542.31
2018-05-27T18:09:21.915Z,101537.92
2018-05-27T18:11:49.700Z,101533.41
2018-05-27T18:14:17.229Z,101529.59
2018-05-27T18:16:45.035Z,101534.89
2018-05-27T18:19:12.566Z,101536.03
2018-05-27T18:21:40.501Z,101541.80
2018-05-27T18:24:08.083Z,101541.42
2018-05-27T18:26:35.611Z,101541.95
2018-05-27T18:29:03.145Z,101551.22
2018-05-27T18:31:30.670Z,101554.02
2018-05-27T18:33:58.194Z,101560.66
2018-05-27T18:36:26.017Z,101560.30
2018-05-27T18:38:53.517Z,101562.77
2018-05-27T18:41:21.092Z,101568.17
2018-05-27T18:43:48.619Z,101574.18
2018-05-27T18:46:16.184Z,101582.14
2018-05-27T18:48:43.736Z,101575.56
2018-05-27T18:51:11.274Z,101577.56
2018-05-27T18:53:38.824Z,101574.50
2018-05-27T18:56:06.414Z,101576.39
2018-05-27T18:58:33.927Z,101587.63
2018-05-27T19:01:01.459Z,101594.55
2018-05-27T19:03:28.979Z,101604.80
2018-05-27T19:05:56.559Z,101601.66
2018-05-27T19:08:25.017Z,101610.42
2018-05-27T19:10:52.886Z,101616.48
2018-05-27T19:13:20.464Z,101619.42
2018-05-27T19:15:48.028Z,101609.53
2018-05-27T19:18:15.529Z,101613.80
2018-05-27T19:20:43.147Z,101621.83
2018-05-27T19:23:10.721Z,101628.38
2018-05-27T19:25:38.271Z,101628.79
2018-05-27T19:28:05.772Z,101630.63
2018-05-27T19:30:33.588Z,101629.80
2018-05-27T19:33:01.124Z,101635.62
2018-05-27T19:35:29.008Z,101628.08
2018-05-27T19:37:56.554Z,101623.25
2018-05-27T19:40:24.082Z,101628.34
2018-05-27T19:42:51.874Z,101627.72
2018-05-27T19:45:19.390Z,101625.49
2018-05-27T19:47:46.912Z,101625.18
2018-05-27T19:50:15.524Z,101615.58
2018-05-27T19:52:43.046Z,101620.27
2018-05-27T19:55:11.050Z,101614.48
2018-05-27T19:57:38.715Z,101618.27
2018-05-27T20:00:06.562Z,101622.12
2018-05-27T20:02:34.365Z,101624.91
2018-05-27T20:05:02.009Z,101624.24
2018-05-27T20:07:29.554Z,101623.23
2018-05-27T20:09:57.082Z,101607.66
2018-05-27T20:12:24.754Z,101616.55
2018-05-27T20:14:52.279Z,101607.56
2018-05-27T20:17:20.112Z,101607.88
2018-05-27T20:19:47.662Z,101616.72
2018-05-27T20:22:15.534Z,101600.89
2018-05-27T20:24:43.160Z,101603.95
2018-05-27T20:27:10.718Z,101600.48
2018-05-27T20:29:38.262Z,101603.69
2018-05-27T20:32:06.487Z,101603.95
2018-05-27T20:34:34.012Z,101603.88
2018-05-27T20:37:01.683Z,101605.66
2018-05-27T20:39:29.473Z,101608.67
2018-05-27T20:41:57.047Z,101610.04
2018-05-27T20:44:24.582Z,101611.55
2018-05-27T20:46:52.126Z,101611.52
2018-05-27T20:49:19.920Z,101617.25
2018-05-27T20:51:47.496Z,101619.48
2018-05-27T20:54:15.057Z,101618.23
2018-05-27T20:56:42.711Z,101613.13
2018-05-27T20:59:10.266Z,101607.47
2018-05-27T21:01:37.785Z,101605.16
2018-05-27T21:04:05.414Z,101604.79
2018-05-27T21:06:32.947Z,101597.95
2018-05-27T21:09:01.612Z,101606.68
2018-05-27T21:11:29.369Z,101610.72
2018-05-27T21:13:57.172Z,101611.05
2018-05-27T21:16:24.814Z,101611.05
2018-05-27T21:18:52.339Z,101616.83
2018-05-27T21:21:19.845Z,101622.22
2018-05-27T21:23:48.383Z,101627.47
2018-05-27T21:26:15.887Z,101633.02
2018-05-27T21:28:43.447Z,101629.28
2018-05-27T21:31:10.973Z,101628.82
2018-05-27T21:33:38.886Z,101634.67
2018-05-27T21:36:06.385Z,101634.25
2018-05-27T21:38:33.920Z,101628.36
2018-05-27T21:41:01.426Z,101628.52
2018-05-27T21:43:28.937Z,101625.38
2018-05-27T21:45:56.490Z,101631.86
2018-05-27T21:48:24.009Z,101625.91
2018-05-27T21:50:51.526Z,101630.61
2018-05-27T21:53:19.052Z,101634.91
2018-05-27T21:55:46.572Z,101627.66
2018-05-27T21:58:14.137Z,101621.27
2018-05-27T22:00:41.707Z,101623.50
2018-05-27T22:03:09.261Z,101620.97
2018-05-27T22:05:36.800Z,101627.77
2018-05-27T22:08:04.388Z,101624.20
2018-05-27T22:10:31.918Z,101629.55
2018-05-27T22:12:59.430Z,101625.70
2018-05-27T22:15:26.935Z,101628.17
2018-05-27T22:17:54.458Z,101630.17
2018-05-27T22:20:22.254Z,101627.79
2018-05-27T22:22:49.787Z,101628.16
2018-05-27T22:25:17.301Z,101628.84
2018-05-27T22:27:45.142Z,101627.48
2018-05-27T22:30:12.809Z,101624.08
2018-05-27T22:32:40.644Z,101626.80
2018-05-27T22:35:08.181Z,101623.80
2018-05-27T22:37:35.982Z,101630.07
2018-05-27T22:40:03.540Z,101629.34
2018-05-27T22:42:31.042Z,101623.87
2018-05-27T22:44:58.590Z,101625.67
2018-05-27T22:47:26.137Z,101628.69
2018-05-27T22:49:54.012Z,101631.94
2018-05-27T22:52:21.512Z,101628.61
2018-05-27T22:54:49.089Z,101627.72
2018-05-27T22:57:16.608Z,101626.06
2018-05-27T22:59:44.146Z,101630.19
2018-05-27T23:02:11.673Z,101627.12
2018-05-27T23:04:39.205Z,101625.34
2018-05-27T23:07:06.722Z,101622.63
2018-05-27T23:09:34.242Z,101617.31
2018-05-27T23:12:01.775Z,101624.20
2018-05-27T23:14:29.596Z,101614.34
2018-05-27T23:16:57.105Z,101614.02
2018-05-27T23:19:24.650Z,101621.02
2018-05-27T23:21:52.727Z,101619.69
2018-05-27T23:24:20.295Z,101617.89
2018-05-27T23:26:47.846Z,101611.02
2018-05-27T23:29:15.397Z,101616.20
2018-05-27T23:31:42.952Z,101617.97
2018-05-27T23:34:10.493Z,101617.77
2018-05-27T23:36:38.117Z,101615.31
2018-05-27T23:39:06.431Z,101613.13
2018-05-27T23:41:34.192Z,101609.47
2018-05-27T23:44:01.755Z,101611.27
2018-05-27T23:46:29.397Z,101607.08
2018-05-27T23:48:56.939Z,101599.80
2018-05-27T23:51:24.447Z,101609.49
2018-05-27T23:53:51.974Z,101611.84
2018-05-27T23:56:19.762Z,101604.53
2018-05-27T23:58:47.345Z,101611.43
